sensor_id;sensor_type;location;lat;lon;timestamp;P1;durP1;ratioP1;P2;durP2;ratioP2
24279;SDS011;12395;42.808;23.408;2023-04-26T00:00:17;7.03;;;2.97;;
24279;SDS011;12395;42.808;23.408;2023-04-26T00:02:44;7.13;;;3.27;;
24279;SDS011;12395;42.808;23.408;2023-04-26T00:05:10;5.22;;;3.10;;
24279;SDS011;12395;42.808;23.408;2023-04-26T00:07:35;5.30;;;2.85;;
24279;SDS011;12395;42.808;23.408;2023-04-26T00:10:02;6.43;;;3.20;;
24279;SDS011;12395;42.808;23.408;2023-04-26T00:12:29;5.35;;;2.95;;
24279;SDS011;12395;42.808;23.408;2023-04-26T00:14:54;5.15;;;2.90;;
24279;SDS011;12395;42.808;23.408;2023-04-26T00:17:20;21.65;;;3.80;;
24279;SDS011;12395;42.808;23.408;2023-04-26T00:19:45;5.72;;;3.00;;
24279;SDS011;12395;42.808;23.408;2023-04-26T00:22:11;5.65;;;3.00;;
24279;SDS011;12395;42.808;23.408;2023-04-26T00:24:37;7.45;;;3.25;;
24279;SDS011;12395;42.808;23.408;2023-04-26T00:27:02;7.05;;;3.50;;
24279;SDS011;12395;42.808;23.408;2023-04-26T00:29:33;5.03;;;3.17;;
24279;SDS011;12395;42.808;23.408;2023-04-26T00:31:58;5.70;;;3.30;;
24279;SDS011;12395;42.808;23.408;2023-04-26T00:34:24;5.40;;;3.08;;
24279;SDS011;12395;42.808;23.408;2023-04-26T00:36:49;6.70;;;3.08;;
24279;SDS011;12395;42.808;23.408;2023-04-26T00:39:14;7.55;;;3.28;;
24279;SDS011;12395;42.808;23.408;2023-04-26T00:41:40;7.55;;;3.40;;
24279;SDS011;12395;42.808;23.408;2023-04-26T00:44:06;6.95;;;3.80;;
24279;SDS011;12395;42.808;23.408;2023-04-26T00:46:31;7.90;;;3.65;;
24279;SDS011;12395;42.808;23.408;2023-04-26T00:48:56;7.00;;;3.67;;
24279;SDS011;12395;42.808;23.408;2023-04-26T00:51:22;7.70;;;3.45;;
24279;SDS011;12395;42.808;23.408;2023-04-26T00:53:47;6.97;;;3.65;;
24279;SDS011;12395;42.808;23.408;2023-04-26T00:56:13;5.60;;;3.30;;
24279;SDS011;12395;42.808;23.408;2023-04-26T00:58:40;7.10;;;3.25;;
24279;SDS011;12395;42.808;23.408;2023-04-26T01:01:06;5.72;;;3.28;;
24279;SDS011;12395;42.808;23.408;2023-04-26T01:03:31;7.45;;;3.42;;
24279;SDS011;12395;42.808;23.408;2023-04-26T01:05:57;8.15;;;3.65;;
24279;SDS011;12395;42.808;23.408;2023-04-26T01:08:23;6.68;;;3.60;;
24279;SDS011;12395;42.808;23.408;2023-04-26T01:10:50;8.83;;;4.00;;
24279;SDS011;12395;42.808;23.408;2023-04-26T01:13:16;7.03;;;3.90;;
24279;SDS011;12395;42.808;23.408;2023-04-26T01:15:45;7.20;;;4.20;;
24279;SDS011;12395;42.808;23.408;2023-04-26T01:18:11;8.00;;;3.95;;
24279;SDS011;12395;42.808;23.408;2023-04-26T01:20:38;7.53;;;4.10;;
24279;SDS011;12395;42.808;23.408;2023-04-26T01:23:03;9.27;;;4.13;;
24279;SDS011;12395;42.808;23.408;2023-04-26T01:25:30;9.20;;;4.13;;
24279;SDS011;12395;42.808;23.408;2023-04-26T01:27:56;8.68;;;4.45;;
24279;SDS011;12395;42.808;23.408;2023-04-26T01:30:21;7.53;;;4.15;;
24279;SDS011;12395;42.808;23.408;2023-04-26T01:32:46;9.52;;;4.32;;
24279;SDS011;12395;42.808;23.408;2023-04-26T01:35:12;8.63;;;3.90;;
24279;SDS011;12395;42.808;23.408;2023-04-26T01:37:38;8.73;;;4.13;;
24279;SDS011;12395;42.808;23.408;2023-04-26T01:40:03;8.70;;;3.55;;
24279;SDS011;12395;42.808;23.408;2023-04-26T01:42:32;7.32;;;3.60;;
24279;SDS011;12395;42.808;23.408;2023-04-26T01:44:57;8.70;;;4.22;;
24279;SDS011;12395;42.808;23.408;2023-04-26T01:47:23;9.40;;;3.75;;
24279;SDS011;12395;42.808;23.408;2023-04-26T01:49:50;8.27;;;4.30;;
24279;SDS011;12395;42.808;23.408;2023-04-26T01:52:15;9.32;;;4.15;;
24279;SDS011;12395;42.808;23.408;2023-04-26T01:54:41;10.95;;;5.57;;
24279;SDS011;12395;42.808;23.408;2023-04-26T01:57:06;8.23;;;4.53;;
24279;SDS011;12395;42.808;23.408;2023-04-26T01:59:32;7.93;;;4.07;;
24279;SDS011;12395;42.808;23.408;2023-04-26T02:01:57;8.15;;;4.13;;
24279;SDS011;12395;42.808;23.408;2023-04-26T02:04:23;7.97;;;4.05;;
24279;SDS011;12395;42.808;23.408;2023-04-26T02:06:48;10.18;;;4.60;;
24279;SDS011;12395;42.808;23.408;2023-04-26T02:09:13;7.50;;;3.75;;
24279;SDS011;12395;42.808;23.408;2023-04-26T02:11:39;8.82;;;4.22;;
24279;SDS011;12395;42.808;23.408;2023-04-26T02:14:05;9.23;;;4.13;;
24279;SDS011;12395;42.808;23.408;2023-04-26T02:16:30;8.00;;;4.13;;
24279;SDS011;12395;42.808;23.408;2023-04-26T02:18:56;8.10;;;4.05;;
24279;SDS011;12395;42.808;23.408;2023-04-26T02:21:23;10.27;;;4.53;;
24279;SDS011;12395;42.808;23.408;2023-04-26T02:23:49;9.18;;;4.18;;
24279;SDS011;12395;42.808;23.408;2023-04-26T02:26:14;8.02;;;4.43;;
24279;SDS011;12395;42.808;23.408;2023-04-26T02:28:40;8.52;;;4.72;;
24279;SDS011;12395;42.808;23.408;2023-04-26T02:31:08;8.55;;;4.60;;
24279;SDS011;12395;42.808;23.408;2023-04-26T02:33:34;8.48;;;4.25;;
24279;SDS011;12395;42.808;23.408;2023-04-26T02:36:05;8.93;;;4.55;;
24279;SDS011;12395;42.808;23.408;2023-04-26T02:38:32;9.00;;;4.40;;
24279;SDS011;12395;42.808;23.408;2023-04-26T02:40:59;9.27;;;4.15;;
24279;SDS011;12395;42.808;23.408;2023-04-26T02:43:25;9.00;;;4.38;;
24279;SDS011;12395;42.808;23.408;2023-04-26T02:45:51;7.57;;;4.10;;
24279;SDS011;12395;42.808;23.408;2023-04-26T02:48:16;7.50;;;4.03;;
24279;SDS011;12395;42.808;23.408;2023-04-26T02:50:41;10.40;;;4.53;;
24279;SDS011;12395;42.808;23.408;2023-04-26T02:53:07;8.90;;;4.20;;
24279;SDS011;12395;42.808;23.408;2023-04-26T02:55:32;9.43;;;4.53;;
24279;SDS011;12395;42.808;23.408;2023-04-26T02:57:58;8.82;;;4.30;;
24279;SDS011;12395;42.808;23.408;2023-04-26T03:00:23;8.32;;;4.30;;
24279;SDS011;12395;42.808;23.408;2023-04-26T03:02:49;9.68;;;4.80;;
24279;SDS011;12395;42.808;23.408;2023-04-26T03:05:14;10.85;;;5.30;;
24279;SDS011;12395;42.808;23.408;2023-04-26T03:07:40;10.93;;;5.10;;
24279;SDS011;12395;42.808;23.408;2023-04-26T03:10:05;10.00;;;4.75;;
24279;SDS011;12395;42.808;23.408;2023-04-26T03:12:32;9.93;;;4.72;;
24279;SDS011;12395;42.808;23.408;2023-04-26T03:14:58;11.77;;;4.93;;
24279;SDS011;12395;42.808;23.408;2023-04-26T03:17:23;8.90;;;4.40;;
24279;SDS011;12395;42.808;23.408;2023-04-26T03:19:48;9.30;;;4.93;;
24279;SDS011;12395;42.808;23.408;2023-04-26T03:22:14;9.10;;;4.68;;
24279;SDS011;12395;42.808;23.408;2023-04-26T03:24:43;8.50;;;4.55;;
24279;SDS011;12395;42.808;23.408;2023-04-26T03:27:10;10.45;;;4.88;;
24279;SDS011;12395;42.808;23.408;2023-04-26T03:29:35;10.15;;;4.65;;
24279;SDS011;12395;42.808;23.408;2023-04-26T03:32:01;12.77;;;7.50;;
24279;SDS011;12395;42.808;23.408;2023-04-26T03:34:26;11.23;;;5.28;;
24279;SDS011;12395;42.808;23.408;2023-04-26T03:36:52;9.82;;;5.20;;
24279;SDS011;12395;42.808;23.408;2023-04-26T03:39:17;11.88;;;5.43;;
24279;SDS011;12395;42.808;23.408;2023-04-26T03:41:43;10.57;;;5.47;;
24279;SDS011;12395;42.808;23.408;2023-04-26T03:44:08;10.13;;;5.50;;
24279;SDS011;12395;42.808;23.408;2023-04-26T03:46:34;11.32;;;5.45;;
24279;SDS011;12395;42.808;23.408;2023-04-26T03:48:59;10.35;;;5.18;;
24279;SDS011;12395;42.808;23.408;2023-04-26T03:51:24;11.77;;;5.03;;
24279;SDS011;12395;42.808;23.408;2023-04-26T03:53:51;11.02;;;4.80;;
24279;SDS011;12395;42.808;23.408;2023-04-26T03:56:16;9.13;;;5.00;;
24279;SDS011;12395;42.808;23.408;2023-04-26T03:58:42;14.02;;;5.30;;
24279;SDS011;12395;42.808;23.408;2023-04-26T04:01:07;10.38;;;5.07;;
24279;SDS011;12395;42.808;23.408;2023-04-26T04:03:33;9.85;;;5.43;;
24279;SDS011;12395;42.808;23.408;2023-04-26T04:05:58;10.70;;;5.75;;
24279;SDS011;12395;42.808;23.408;2023-04-26T04:08:24;10.88;;;5.75;;
24279;SDS011;12395;42.808;23.408;2023-04-26T04:10:49;10.07;;;5.55;;
24279;SDS011;12395;42.808;23.408;2023-04-26T04:13:15;11.20;;;5.97;;
24279;SDS011;12395;42.808;23.408;2023-04-26T04:15:40;9.77;;;5.43;;
24279;SDS011;12395;42.808;23.408;2023-04-26T04:18:05;9.80;;;5.43;;
24279;SDS011;12395;42.808;23.408;2023-04-26T04:20:31;10.20;;;5.78;;
24279;SDS011;12395;42.808;23.408;2023-04-26T04:22:56;9.75;;;5.70;;
24279;SDS011;12395;42.808;23.408;2023-04-26T04:25:22;9.38;;;5.38;;
24279;SDS011;12395;42.808;23.408;2023-04-26T04:27:49;8.88;;;5.28;;
24279;SDS011;12395;42.808;23.408;2023-04-26T04:30:15;9.32;;;4.47;;
24279;SDS011;12395;42.808;23.408;2023-04-26T04:32:41;8.82;;;4.97;;
24279;SDS011;12395;42.808;23.408;2023-04-26T04:35:10;10.10;;;4.93;;
24279;SDS011;12395;42.808;23.408;2023-04-26T04:37:36;9.40;;;5.45;;
24279;SDS011;12395;42.808;23.408;2023-04-26T04:40:03;10.30;;;5.20;;
24279;SDS011;12395;42.808;23.408;2023-04-26T04:42:28;8.52;;;4.90;;
24279;SDS011;12395;42.808;23.408;2023-04-26T04:44:54;10.07;;;5.57;;
24279;SDS011;12395;42.808;23.408;2023-04-26T04:47:20;11.25;;;5.20;;
24279;SDS011;12395;42.808;23.408;2023-04-26T04:49:46;9.90;;;5.32;;
24279;SDS011;12395;42.808;23.408;2023-04-26T04:52:11;11.48;;;6.18;;
24279;SDS011;12395;42.808;23.408;2023-04-26T04:54:37;11.40;;;6.32;;
24279;SDS011;12395;42.808;23.408;2023-04-26T04:57:02;13.65;;;7.40;;
24279;SDS011;12395;42.808;23.408;2023-04-26T04:59:29;12.75;;;7.38;;
24279;SDS011;12395;42.808;23.408;2023-04-26T05:01:55;17.08;;;8.70;;
24279;SDS011;12395;42.808;23.408;2023-04-26T05:04:20;19.60;;;9.50;;
24279;SDS011;12395;42.808;23.408;2023-04-26T05:06:46;17.50;;;9.25;;
24279;SDS011;12395;42.808;23.408;2023-04-26T05:09:11;11.15;;;6.50;;
24279;SDS011;12395;42.808;23.408;2023-04-26T05:11:37;18.83;;;9.80;;
24279;SDS011;12395;42.808;23.408;2023-04-26T05:14:02;14.82;;;8.00;;
24279;SDS011;12395;42.808;23.408;2023-04-26T05:16:27;10.40;;;6.40;;
24279;SDS011;12395;42.808;23.408;2023-04-26T05:18:53;11.32;;;6.35;;
24279;SDS011;12395;42.808;23.408;2023-04-26T05:21:18;9.90;;;5.88;;
24279;SDS011;12395;42.808;23.408;2023-04-26T05:23:44;9.68;;;5.78;;
24279;SDS011;12395;42.808;23.408;2023-04-26T05:26:14;10.60;;;6.20;;
24279;SDS011;12395;42.808;23.408;2023-04-26T05:28:40;11.38;;;6.13;;
24279;SDS011;12395;42.808;23.408;2023-04-26T05:31:07;14.90;;;8.23;;
24279;SDS011;12395;42.808;23.408;2023-04-26T05:33:33;11.45;;;6.13;;
24279;SDS011;12395;42.808;23.408;2023-04-26T05:35:59;10.57;;;5.53;;
24279;SDS011;12395;42.808;23.408;2023-04-26T05:38:25;11.23;;;6.43;;
24279;SDS011;12395;42.808;23.408;2023-04-26T05:40:51;10.88;;;6.25;;
24279;SDS011;12395;42.808;23.408;2023-04-26T05:43:16;9.38;;;5.72;;
24279;SDS011;12395;42.808;23.408;2023-04-26T05:45:55;14.25;;;7.78;;
24279;SDS011;12395;42.808;23.408;2023-04-26T05:48:21;15.18;;;9.38;;
24279;SDS011;12395;42.808;23.408;2023-04-26T05:50:48;16.90;;;9.80;;
24279;SDS011;12395;42.808;23.408;2023-04-26T05:53:14;13.10;;;7.05;;
24279;SDS011;12395;42.808;23.408;2023-04-26T05:55:40;11.57;;;6.60;;
24279;SDS011;12395;42.808;23.408;2023-04-26T05:58:06;11.65;;;6.28;;
24279;SDS011;12395;42.808;23.408;2023-04-26T06:00:32;10.38;;;5.80;;
24279;SDS011;12395;42.808;23.408;2023-04-26T06:02:58;10.25;;;5.70;;
24279;SDS011;12395;42.808;23.408;2023-04-26T06:05:23;9.00;;;4.90;;
24279;SDS011;12395;42.808;23.408;2023-04-26T06:07:49;8.43;;;4.97;;
24279;SDS011;12395;42.808;23.408;2023-04-26T06:10:15;11.18;;;5.30;;
24279;SDS011;12395;42.808;23.408;2023-04-26T06:12:41;8.05;;;4.78;;
24279;SDS011;12395;42.808;23.408;2023-04-26T06:15:07;11.35;;;5.45;;
24279;SDS011;12395;42.808;23.408;2023-04-26T06:17:32;13.23;;;7.03;;
24279;SDS011;12395;42.808;23.408;2023-04-26T06:19:58;11.48;;;6.85;;
24279;SDS011;12395;42.808;23.408;2023-04-26T06:22:24;9.02;;;5.40;;
24279;SDS011;12395;42.808;23.408;2023-04-26T06:24:49;8.55;;;5.47;;
24279;SDS011;12395;42.808;23.408;2023-04-26T06:27:15;7.53;;;5.05;;
24279;SDS011;12395;42.808;23.408;2023-04-26T06:29:41;7.57;;;5.15;;
24279;SDS011;12395;42.808;23.408;2023-04-26T06:32:07;8.32;;;5.15;;
24279;SDS011;12395;42.808;23.408;2023-04-26T06:34:33;9.18;;;5.13;;
24279;SDS011;12395;42.808;23.408;2023-04-26T06:36:59;9.60;;;5.60;;
24279;SDS011;12395;42.808;23.408;2023-04-26T06:39:25;9.35;;;5.97;;
24279;SDS011;12395;42.808;23.408;2023-04-26T06:41:50;9.23;;;5.65;;
24279;SDS011;12395;42.808;23.408;2023-04-26T06:44:15;10.38;;;5.88;;
24279;SDS011;12395;42.808;23.408;2023-04-26T06:46:41;8.60;;;5.30;;
24279;SDS011;12395;42.808;23.408;2023-04-26T06:49:06;9.38;;;5.82;;
24279;SDS011;12395;42.808;23.408;2023-04-26T06:51:32;10.05;;;6.10;;
24279;SDS011;12395;42.808;23.408;2023-04-26T06:53:57;10.38;;;5.50;;
24279;SDS011;12395;42.808;23.408;2023-04-26T06:56:24;9.18;;;5.85;;
24279;SDS011;12395;42.808;23.408;2023-04-26T06:58:57;10.82;;;6.15;;
24279;SDS011;12395;42.808;23.408;2023-04-26T07:01:30;9.45;;;5.53;;
24279;SDS011;12395;42.808;23.408;2023-04-26T07:03:58;9.23;;;5.65;;
24279;SDS011;12395;42.808;23.408;2023-04-26T07:06:25;7.65;;;5.30;;
24279;SDS011;12395;42.808;23.408;2023-04-26T07:08:51;7.78;;;5.18;;
24279;SDS011;12395;42.808;23.408;2023-04-26T07:11:17;7.88;;;5.10;;
24279;SDS011;12395;42.808;23.408;2023-04-26T07:13:43;8.30;;;5.63;;
24279;SDS011;12395;42.808;23.408;2023-04-26T07:16:08;9.10;;;5.93;;
24279;SDS011;12395;42.808;23.408;2023-04-26T07:18:33;9.02;;;5.70;;
24279;SDS011;12395;42.808;23.408;2023-04-26T07:20:59;7.60;;;5.15;;
24279;SDS011;12395;42.808;23.408;2023-04-26T07:23:24;9.30;;;5.43;;
24279;SDS011;12395;42.808;23.408;2023-04-26T07:25:50;7.90;;;4.78;;
24279;SDS011;12395;42.808;23.408;2023-04-26T07:28:15;8.05;;;5.13;;
24279;SDS011;12395;42.808;23.408;2023-04-26T07:30:41;7.93;;;4.80;;
24279;SDS011;12395;42.808;23.408;2023-04-26T07:33:06;7.00;;;4.57;;
24279;SDS011;12395;42.808;23.408;2023-04-26T07:35:31;6.97;;;4.85;;
24279;SDS011;12395;42.808;23.408;2023-04-26T07:40:24;6.40;;;4.47;;
24279;SDS011;12395;42.808;23.408;2023-04-26T07:42:50;8.55;;;4.50;;
24279;SDS011;12395;42.808;23.408;2023-04-26T07:45:17;8.20;;;4.30;;
24279;SDS011;12395;42.808;23.408;2023-04-26T07:47:43;6.43;;;4.20;;
24279;SDS011;12395;42.808;23.408;2023-04-26T07:50:09;6.50;;;4.38;;
24279;SDS011;12395;42.808;23.408;2023-04-26T07:52:35;7.50;;;4.93;;
24279;SDS011;12395;42.808;23.408;2023-04-26T07:55:00;6.68;;;4.45;;
24279;SDS011;12395;42.808;23.408;2023-04-26T07:57:26;7.60;;;4.68;;
24279;SDS011;12395;42.808;23.408;2023-04-26T07:59:51;6.97;;;4.32;;
24279;SDS011;12395;42.808;23.408;2023-04-26T08:02:17;6.93;;;4.78;;
24279;SDS011;12395;42.808;23.408;2023-04-26T08:04:46;7.03;;;4.65;;
24279;SDS011;12395;42.808;23.408;2023-04-26T08:07:13;7.63;;;4.70;;
24279;SDS011;12395;42.808;23.408;2023-04-26T08:09:39;6.20;;;4.30;;
24279;SDS011;12395;42.808;23.408;2023-04-26T08:12:04;6.80;;;4.20;;
24279;SDS011;12395;42.808;23.408;2023-04-26T08:14:30;7.80;;;4.95;;
24279;SDS011;12395;42.808;23.408;2023-04-26T08:16:57;7.75;;;4.90;;
24279;SDS011;12395;42.808;23.408;2023-04-26T08:19:22;10.68;;;4.88;;
24279;SDS011;12395;42.808;23.408;2023-04-26T08:21:48;9.18;;;5.40;;
24279;SDS011;12395;42.808;23.408;2023-04-26T08:24:13;8.15;;;5.22;;
24279;SDS011;12395;42.808;23.408;2023-04-26T08:26:39;7.50;;;4.60;;
24279;SDS011;12395;42.808;23.408;2023-04-26T08:29:05;8.05;;;4.85;;
24279;SDS011;12395;42.808;23.408;2023-04-26T08:31:30;10.18;;;5.85;;
24279;SDS011;12395;42.808;23.408;2023-04-26T08:33:56;8.13;;;4.63;;
24279;SDS011;12395;42.808;23.408;2023-04-26T08:36:21;7.05;;;4.47;;
24279;SDS011;12395;42.808;23.408;2023-04-26T08:38:46;9.23;;;4.45;;
24279;SDS011;12395;42.808;23.408;2023-04-26T08:41:12;6.60;;;4.38;;
24279;SDS011;12395;42.808;23.408;2023-04-26T08:43:40;7.72;;;4.55;;
24279;SDS011;12395;42.808;23.408;2023-04-26T08:46:07;6.88;;;4.10;;
24279;SDS011;12395;42.808;23.408;2023-04-26T08:48:36;6.63;;;4.15;;
24279;SDS011;12395;42.808;23.408;2023-04-26T08:51:01;7.68;;;4.13;;
24279;SDS011;12395;42.808;23.408;2023-04-26T08:53:29;6.90;;;4.40;;
24279;SDS011;12395;42.808;23.408;2023-04-26T08:55:58;7.30;;;4.28;;
24279;SDS011;12395;42.808;23.408;2023-04-26T08:58:25;6.53;;;4.30;;
24279;SDS011;12395;42.808;23.408;2023-04-26T09:00:51;5.50;;;3.80;;
24279;SDS011;12395;42.808;23.408;2023-04-26T09:03:16;6.05;;;4.00;;
24279;SDS011;12395;42.808;23.408;2023-04-26T09:05:42;6.93;;;4.20;;
24279;SDS011;12395;42.808;23.408;2023-04-26T09:08:08;6.78;;;4.05;;
24279;SDS011;12395;42.808;23.408;2023-04-26T09:10:40;4.63;;;3.05;;
24279;SDS011;12395;42.808;23.408;2023-04-26T09:13:05;4.43;;;3.00;;
24279;SDS011;12395;42.808;23.408;2023-04-26T09:15:31;7.00;;;3.95;;
24279;SDS011;12395;42.808;23.408;2023-04-26T09:17:56;4.75;;;3.35;;
24279;SDS011;12395;42.808;23.408;2023-04-26T09:20:40;5.90;;;3.70;;
24279;SDS011;12395;42.808;23.408;2023-04-26T09:23:07;3.90;;;2.80;;
24279;SDS011;12395;42.808;23.408;2023-04-26T09:25:33;2.97;;;2.38;;
24279;SDS011;12395;42.808;23.408;2023-04-26T09:28:00;5.83;;;2.93;;
24279;SDS011;12395;42.808;23.408;2023-04-26T09:35:27;6.45;;;2.97;;
24279;SDS011;12395;42.808;23.408;2023-04-26T09:40:26;4.38;;;2.63;;
24279;SDS011;12395;42.808;23.408;2023-04-26T09:43:26;3.13;;;2.25;;
24279;SDS011;12395;42.808;23.408;2023-04-26T09:50:50;2.45;;;2.00;;
24279;SDS011;12395;42.808;23.408;2023-04-26T09:55:50;5.30;;;2.60;;
24279;SDS011;12395;42.808;23.408;2023-04-26T09:58:17;4.97;;;2.70;;
24279;SDS011;12395;42.808;23.408;2023-04-26T10:00:42;7.00;;;2.70;;
24279;SDS011;12395;42.808;23.408;2023-04-26T10:03:08;4.65;;;2.72;;
24279;SDS011;12395;42.808;23.408;2023-04-26T10:05:36;4.53;;;2.45;;
24279;SDS011;12395;42.808;23.408;2023-04-26T10:08:01;3.50;;;2.45;;
24279;SDS011;12395;42.808;23.408;2023-04-26T10:10:28;4.35;;;2.50;;
24279;SDS011;12395;42.808;23.408;2023-04-26T10:12:55;3.72;;;2.40;;
24279;SDS011;12395;42.808;23.408;2023-04-26T10:15:20;2.90;;;2.10;;
24279;SDS011;12395;42.808;23.408;2023-04-26T10:17:46;3.50;;;2.20;;
24279;SDS011;12395;42.808;23.408;2023-04-26T10:20:12;2.35;;;1.70;;
24279;SDS011;12395;42.808;23.408;2023-04-26T10:22:43;2.95;;;2.28;;
24279;SDS011;12395;42.808;23.408;2023-04-26T10:25:10;2.80;;;2.10;;
24279;SDS011;12395;42.808;23.408;2023-04-26T10:30:11;2.70;;;2.10;;
24279;SDS011;12395;42.808;23.408;2023-04-26T10:35:27;2.55;;;1.63;;
24279;SDS011;12395;42.808;23.408;2023-04-26T10:45:44;2.15;;;1.70;;
24279;SDS011;12395;42.808;23.408;2023-04-26T10:48:13;2.00;;;1.65;;
24279;SDS011;12395;42.808;23.408;2023-04-26T10:53:23;2.50;;;1.48;;
24279;SDS011;12395;42.808;23.408;2023-04-26T10:55:49;2.55;;;1.38;;
24279;SDS011;12395;42.808;23.408;2023-04-26T10:58:25;1.95;;;1.40;;
24279;SDS011;12395;42.808;23.408;2023-04-26T11:01:04;1.42;;;1.23;;
24279;SDS011;12395;42.808;23.408;2023-04-26T11:03:30;2.08;;;1.40;;
24279;SDS011;12395;42.808;23.408;2023-04-26T11:05:56;2.25;;;1.20;;
24279;SDS011;12395;42.808;23.408;2023-04-26T11:08:28;2.17;;;1.27;;
24279;SDS011;12395;42.808;23.408;2023-04-26T11:13:30;1.27;;;1.17;;
24279;SDS011;12395;42.808;23.408;2023-04-26T11:16:03;3.10;;;1.55;;
24279;SDS011;12395;42.808;23.408;2023-04-26T11:18:31;1.67;;;1.20;;
24279;SDS011;12395;42.808;23.408;2023-04-26T11:20:57;1.58;;;1.30;;
24279;SDS011;12395;42.808;23.408;2023-04-26T11:23:23;1.88;;;1.40;;
24279;SDS011;12395;42.808;23.408;2023-04-26T11:25:49;1.63;;;1.25;;
24279;SDS011;12395;42.808;23.408;2023-04-26T11:28:15;1.98;;;1.08;;
24279;SDS011;12395;42.808;23.408;2023-04-26T11:30:42;1.40;;;1.30;;
24279;SDS011;12395;42.808;23.408;2023-04-26T11:33:14;1.92;;;1.20;;
24279;SDS011;12395;42.808;23.408;2023-04-26T11:35:42;3.25;;;1.40;;
24279;SDS011;12395;42.808;23.408;2023-04-26T11:38:08;2.90;;;1.45;;
24279;SDS011;12395;42.808;23.408;2023-04-26T11:40:33;1.83;;;1.33;;
24279;SDS011;12395;42.808;23.408;2023-04-26T11:43:02;1.20;;;1.10;;
24279;SDS011;12395;42.808;23.408;2023-04-26T11:45:32;1.77;;;1.27;;
24279;SDS011;12395;42.808;23.408;2023-04-26T11:48:02;1.45;;;1.08;;
24279;SDS011;12395;42.808;23.408;2023-04-26T11:50:36;1.27;;;1.05;;
24279;SDS011;12395;42.808;23.408;2023-04-26T11:53:02;1.20;;;1.10;;
24279;SDS011;12395;42.808;23.408;2023-04-26T11:55:29;2.35;;;1.30;;
24279;SDS011;12395;42.808;23.408;2023-04-26T12:00:22;2.05;;;1.00;;
24279;SDS011;12395;42.808;23.408;2023-04-26T12:02:48;1.75;;;1.00;;
24279;SDS011;12395;42.808;23.408;2023-04-26T12:05:24;3.00;;;1.20;;
24279;SDS011;12395;42.808;23.408;2023-04-26T12:07:52;3.15;;;1.40;;
24279;SDS011;12395;42.808;23.408;2023-04-26T12:10:21;1.27;;;1.00;;
24279;SDS011;12395;42.808;23.408;2023-04-26T12:12:50;1.27;;;1.00;;
24279;SDS011;12395;42.808;23.408;2023-04-26T12:15:16;2.00;;;1.38;;
24279;SDS011;12395;42.808;23.408;2023-04-26T12:17:52;1.92;;;1.15;;
24279;SDS011;12395;42.808;23.408;2023-04-26T12:22:57;1.55;;;0.90;;
24279;SDS011;12395;42.808;23.408;2023-04-26T12:25:23;1.92;;;1.30;;
24279;SDS011;12395;42.808;23.408;2023-04-26T12:27:48;1.27;;;1.10;;
24279;SDS011;12395;42.808;23.408;2023-04-26T12:30:14;1.15;;;1.05;;
24279;SDS011;12395;42.808;23.408;2023-04-26T12:32:40;1.25;;;1.10;;
24279;SDS011;12395;42.808;23.408;2023-04-26T12:35:06;2.55;;;1.20;;
24279;SDS011;12395;42.808;23.408;2023-04-26T12:37:31;1.52;;;1.20;;
24279;SDS011;12395;42.808;23.408;2023-04-26T12:39:56;2.03;;;1.30;;
24279;SDS011;12395;42.808;23.408;2023-04-26T12:42:22;1.48;;;1.10;;
24279;SDS011;12395;42.808;23.408;2023-04-26T12:44:47;1.77;;;1.50;;
24279;SDS011;12395;42.808;23.408;2023-04-26T12:47:13;1.60;;;1.20;;
24279;SDS011;12395;42.808;23.408;2023-04-26T12:49:38;2.15;;;1.42;;
24279;SDS011;12395;42.808;23.408;2023-04-26T12:52:03;2.15;;;1.60;;
24279;SDS011;12395;42.808;23.408;2023-04-26T12:54:29;2.17;;;1.67;;
24279;SDS011;12395;42.808;23.408;2023-04-26T12:56:54;3.25;;;1.85;;
24279;SDS011;12395;42.808;23.408;2023-04-26T12:59:20;2.70;;;1.85;;
24279;SDS011;12395;42.808;23.408;2023-04-26T13:01:45;3.55;;;2.10;;
24279;SDS011;12395;42.808;23.408;2023-04-26T13:04:11;2.85;;;2.10;;
24279;SDS011;12395;42.808;23.408;2023-04-26T13:06:36;3.08;;;2.20;;
24279;SDS011;12395;42.808;23.408;2023-04-26T13:09:02;2.30;;;1.80;;
24279;SDS011;12395;42.808;23.408;2023-04-26T13:11:28;1.92;;;1.70;;
24279;SDS011;12395;42.808;23.408;2023-04-26T13:13:53;2.53;;;1.77;;
24279;SDS011;12395;42.808;23.408;2023-04-26T13:16:19;2.33;;;1.40;;
24279;SDS011;12395;42.808;23.408;2023-04-26T13:18:44;2.20;;;1.52;;
24279;SDS011;12395;42.808;23.408;2023-04-26T13:21:10;1.73;;;1.45;;
24279;SDS011;12395;42.808;23.408;2023-04-26T13:23:36;5.00;;;1.33;;
24279;SDS011;12395;42.808;23.408;2023-04-26T13:26:01;1.95;;;1.42;;
24279;SDS011;12395;42.808;23.408;2023-04-26T13:28:26;2.53;;;1.50;;
24279;SDS011;12395;42.808;23.408;2023-04-26T13:30:52;1.77;;;1.50;;
24279;SDS011;12395;42.808;23.408;2023-04-26T13:33:17;2.65;;;1.40;;
24279;SDS011;12395;42.808;23.408;2023-04-26T13:35:43;2.58;;;1.35;;
24279;SDS011;12395;42.808;23.408;2023-04-26T13:38:08;2.28;;;1.40;;
24279;SDS011;12395;42.808;23.408;2023-04-26T13:40:33;2.00;;;1.63;;
24279;SDS011;12395;42.808;23.408;2023-04-26T13:43:01;2.85;;;1.67;;
24279;SDS011;12395;42.808;23.408;2023-04-26T13:45:26;1.85;;;1.33;;
24279;SDS011;12395;42.808;23.408;2023-04-26T13:47:52;1.90;;;1.50;;
24279;SDS011;12395;42.808;23.408;2023-04-26T13:50:17;2.72;;;1.75;;
24279;SDS011;12395;42.808;23.408;2023-04-26T13:52:43;4.15;;;1.80;;
24279;SDS011;12395;42.808;23.408;2023-04-26T13:55:08;4.90;;;2.20;;
24279;SDS011;12395;42.808;23.408;2023-04-26T13:57:34;6.50;;;2.45;;
24279;SDS011;12395;42.808;23.408;2023-04-26T14:00:00;3.25;;;2.20;;
24279;SDS011;12395;42.808;23.408;2023-04-26T14:02:25;4.10;;;2.28;;
24279;SDS011;12395;42.808;23.408;2023-04-26T14:04:51;3.33;;;2.42;;
24279;SDS011;12395;42.808;23.408;2023-04-26T14:07:16;4.78;;;2.45;;
24279;SDS011;12395;42.808;23.408;2023-04-26T14:09:42;3.65;;;2.80;;
24279;SDS011;12395;42.808;23.408;2023-04-26T14:12:07;3.70;;;2.50;;
24279;SDS011;12395;42.808;23.408;2023-04-26T14:14:33;3.40;;;2.80;;
24279;SDS011;12395;42.808;23.408;2023-04-26T14:16:59;3.95;;;3.13;;
24279;SDS011;12395;42.808;23.408;2023-04-26T14:19:24;8.10;;;3.00;;
24279;SDS011;12395;42.808;23.408;2023-04-26T14:21:50;3.78;;;2.90;;
24279;SDS011;12395;42.808;23.408;2023-04-26T14:24:16;3.63;;;2.80;;
24279;SDS011;12395;42.808;23.408;2023-04-26T14:26:41;3.15;;;2.85;;
24279;SDS011;12395;42.808;23.408;2023-04-26T14:29:06;3.83;;;2.83;;
24279;SDS011;12395;42.808;23.408;2023-04-26T14:31:32;4.70;;;3.22;;
24279;SDS011;12395;42.808;23.408;2023-04-26T14:33:57;4.25;;;3.13;;
24279;SDS011;12395;42.808;23.408;2023-04-26T14:36:23;4.50;;;3.28;;
24279;SDS011;12395;42.808;23.408;2023-04-26T14:38:48;5.22;;;3.53;;
24279;SDS011;12395;42.808;23.408;2023-04-26T14:41:14;4.63;;;3.28;;
24279;SDS011;12395;42.808;23.408;2023-04-26T14:43:41;5.05;;;3.53;;
24279;SDS011;12395;42.808;23.408;2023-04-26T14:46:07;5.15;;;3.42;;
24279;SDS011;12395;42.808;23.408;2023-04-26T14:48:32;5.35;;;3.42;;
24279;SDS011;12395;42.808;23.408;2023-04-26T14:50:58;4.03;;;3.15;;
24279;SDS011;12395;42.808;23.408;2023-04-26T14:53:24;5.13;;;3.60;;
24279;SDS011;12395;42.808;23.408;2023-04-26T14:55:54;4.82;;;3.60;;
24279;SDS011;12395;42.808;23.408;2023-04-26T14:58:22;4.60;;;3.55;;
24279;SDS011;12395;42.808;23.408;2023-04-26T15:00:48;5.15;;;3.40;;
24279;SDS011;12395;42.808;23.408;2023-04-26T15:03:14;5.07;;;3.22;;
24279;SDS011;12395;42.808;23.408;2023-04-26T15:05:40;5.88;;;3.20;;